Meteo Giornale » Osservazioni meteo Stati Uniti (USA) » Caldwell Essex

ore: 02:53 - Osservazioni Meteo Caldwell Essex
Lat. 40° 52' N Lon. 74° 16' W Alt. 52 metri s.l.m.

sereno America/New_York

13 °C

Sereno

Temp. 24 Ore

12 °C

25 °C

Nord

0 Km/h

Dew point 11 °C

Umidità 87 %

Visibilità  10 Km

Il sole sorge alle ore 05:25

Il sole tramonta alle ore 20:34

Data e Ora Cielo e Fenomeni T °C DP °C Um. % Pres. hPa Vis. km Vento km/h
Oggi h: 02:53 sereno Sereno 13 11 87 1026 10 N 0
Oggi h: 01:53 sereno Sereno 14 11 82 1026 10 N 0
Oggi h: 00:53 sereno Sereno 15 12 82 1027 10 N 0
Ieri h: 23:53 sereno Sereno 16 11 72 1027 10 N 0
Ieri h: 22:53 sereno Sereno 17 11 67 1027 10 N 0
Ieri h: 21:53 sereno Sereno 18 10 59 1027 10 N 0
Ieri h: 20:53 sereno Sereno 21 10 49 1027 10 N 5.5
Ieri h: 19:53 sereno Sereno 22 9 43 1027 10 S/SO 13
Ieri h: 18:53 sereno Sereno 24 9 38 1026 10 S/SE 18.5
Ieri h: 17:53 sereno Sereno 24 9 38 1026 10 SE 11.1
Ieri h: 16:53 sereno Sereno 24 8 35 1026 10 SE 11.1
Ieri h: 15:53 sereno Sereno 25 8 33 1027 10 S 13
Ieri h: 14:53 sereno Sereno 25 8 33 1028 10 S/SE 14.8
Ieri h: 13:53 sereno Sereno 25 7 31 1028 10 S/SE 14.8
Ieri h: 12:53 molto_nuvoloso Molto Nuvoloso 25 7 31 1028 10 S 16.7
Ieri h: 11:53 nuvoloso Nuvoloso 25 8 33 1028 10 S/SO 14.8
Ieri h: 09:53 sereno Sereno 23 12 49 1029 10 E 9.3
Ieri h: 08:53 sereno Sereno 21 12 56 1029 10 N 5.5
Ieri h: 07:53 sereno Sereno 17 12 72 1029 10 N 5.5
Ieri h: 06:53 sereno Sereno 14 11 82 1028 10 N 0
Ieri h: 05:53 sereno Sereno 12 11 93 1028 10 N 0
Ieri h: 04:53 sereno Sereno 13 11 87 1027 10 N 0
Ieri h: 03:53 sereno Sereno 13 11 87 1027 10 N 0